createdAt,value
2018-05-01T00:00:02.060Z,16.68
2018-05-01T00:01:02.641Z,16.65
2018-05-01T00:02:03.261Z,16.58
2018-05-01T00:03:03.842Z,16.58
2018-05-01T00:04:48.927Z,16.61
2018-05-01T00:05:49.506Z,16.54
2018-05-01T00:06:50.131Z,16.58
2018-05-01T00:07:50.758Z,16.57
2018-05-01T00:09:35.898Z,16.58
2018-05-01T00:10:36.475Z,16.60
2018-05-01T00:11:37.052Z,16.60
2018-05-01T00:12:37.633Z,16.56
2018-05-01T00:14:22.717Z,16.60
2018-05-01T00:15:23.295Z,16.58
2018-05-01T00:16:23.876Z,16.51
2018-05-01T00:17:24.451Z,16.57
2018-05-01T00:19:09.540Z,16.57
2018-05-01T00:20:10.118Z,16.57
2018-05-01T00:21:10.696Z,16.50
2018-05-01T00:22:11.275Z,16.47
2018-05-01T00:23:56.363Z,16.51
2018-05-01T00:24:56.991Z,16.49
2018-05-01T00:25:57.572Z,16.60
2018-05-01T00:26:58.145Z,16.53
2018-05-01T00:28:43.291Z,16.49
2018-05-01T00:29:43.868Z,16.42
2018-05-01T00:30:44.491Z,16.43
2018-05-01T00:31:45.068Z,16.41
2018-05-01T00:33:30.158Z,16.46
2018-05-01T00:34:30.736Z,16.46
2018-05-01T00:35:31.314Z,16.47
2018-05-01T00:36:31.897Z,16.43
2018-05-01T00:38:17.025Z,16.46
2018-05-01T00:39:17.604Z,16.42
2018-05-01T00:40:18.180Z,16.43
2018-05-01T00:41:18.760Z,16.49
2018-05-01T00:43:03.899Z,16.43
2018-05-01T00:44:04.475Z,16.41
2018-05-01T00:45:05.101Z,16.42
2018-05-01T00:46:05.679Z,16.35
2018-05-01T00:47:50.771Z,16.41
2018-05-01T00:48:51.348Z,16.32
2018-05-01T00:49:51.933Z,16.32
2018-05-01T00:50:52.505Z,16.29
2018-05-01T00:52:37.594Z,16.33
2018-05-01T00:53:38.221Z,16.32
2018-05-01T00:54:38.798Z,16.36
2018-05-01T00:55:39.375Z,16.35
2018-05-01T00:57:24.465Z,16.35
2018-05-01T00:58:25.045Z,16.46
2018-05-01T00:59:25.626Z,16.32
2018-05-01T01:00:26.251Z,16.38
2018-05-01T01:02:11.342Z,16.41
2018-05-01T01:03:11.920Z,16.38
2018-05-01T01:04:12.498Z,16.28
2018-05-01T01:05:13.077Z,16.33
2018-05-01T01:06:58.166Z,16.33
2018-05-01T01:07:58.794Z,16.31
2018-05-01T01:08:59.370Z,16.29
2018-05-01T01:09:59.946Z,16.24
2018-05-01T01:11:45.086Z,16.35
2018-05-01T01:12:45.664Z,16.28
2018-05-01T01:13:46.239Z,16.24
2018-05-01T01:14:46.815Z,16.21
2018-05-01T01:16:31.909Z,16.24
2018-05-01T01:17:32.532Z,16.20
2018-05-01T01:18:33.108Z,16.20
2018-05-01T01:19:33.689Z,16.15
2018-05-01T01:21:18.824Z,16.31
2018-05-01T01:22:19.444Z,16.17
2018-05-01T01:23:20.023Z,16.23
2018-05-01T01:24:20.601Z,16.24
2018-05-01T01:26:05.691Z,16.15
2018-05-01T01:27:06.269Z,16.17
2018-05-01T01:28:06.847Z,16.20
2018-05-01T01:29:07.426Z,16.23
2018-05-01T01:30:52.566Z,16.28
2018-05-01T01:31:53.144Z,16.20
2018-05-01T01:32:53.771Z,16.17
2018-05-01T01:33:54.348Z,16.23
2018-05-01T01:35:39.437Z,16.23
2018-05-01T01:36:40.016Z,16.12
2018-05-01T01:37:40.592Z,16.28
2018-05-01T01:38:41.172Z,16.24
2018-05-01T01:40:26.309Z,16.24
2018-05-01T01:41:26.887Z,16.17
2018-05-01T01:42:27.464Z,16.21
2018-05-01T01:43:28.041Z,16.20
2018-05-01T01:45:13.131Z,16.16
2018-05-01T01:46:13.710Z,16.21
2018-05-01T01:47:14.286Z,16.21
2018-05-01T01:48:14.866Z,16.20
2018-05-01T01:50:00.007Z,16.26
2018-05-01T01:51:00.626Z,16.23
2018-05-01T01:52:01.208Z,16.08
2018-05-01T01:53:01.828Z,16.26
2018-05-01T01:54:46.963Z,16.17
2018-05-01T01:55:47.541Z,16.05
2018-05-01T01:56:48.122Z,16.21
2018-05-01T01:57:48.698Z,16.13
2018-05-01T01:59:33.788Z,16.16
2018-05-01T02:00:34.415Z,16.09
2018-05-01T02:01:35.042Z,16.04
2018-05-01T02:02:35.619Z,16.01
2018-05-01T02:04:20.710Z,16.05
2018-05-01T02:05:21.289Z,16.08
2018-05-01T02:06:21.917Z,16.05
2018-05-01T02:07:22.493Z,16.09
2018-05-01T02:09:07.632Z,16.08
2018-05-01T02:10:08.210Z,16.04
2018-05-01T02:11:08.788Z,16.08
2018-05-01T02:12:09.366Z,16.04
2018-05-01T02:13:54.655Z,16.09
2018-05-01T02:14:55.230Z,16.05
2018-05-01T02:15:55.807Z,16.04
2018-05-01T02:16:56.384Z,16.05
2018-05-01T02:18:41.474Z,16.04
2018-05-01T02:19:42.105Z,16.04
2018-05-01T02:20:42.721Z,16.08
2018-05-01T02:21:43.301Z,16.04
2018-05-01T02:23:28.387Z,16.05
2018-05-01T02:24:28.966Z,16.04
2018-05-01T02:25:29.543Z,16.02
2018-05-01T02:26:30.122Z,16.12
2018-05-01T02:28:15.262Z,16.05
2018-05-01T02:29:15.840Z,16.09
2018-05-01T02:30:16.420Z,16.04
2018-05-01T02:31:17.036Z,16.12
2018-05-01T02:33:02.176Z,16.02
2018-05-01T02:34:02.753Z,16.01
2018-05-01T02:35:03.329Z,16.09
2018-05-01T02:36:03.955Z,16.08
2018-05-01T02:37:49.046Z,16.04
2018-05-01T02:38:49.623Z,16.05
2018-05-01T02:39:50.202Z,16.10
2018-05-01T02:40:50.779Z,16.05
2018-05-01T02:42:35.866Z,16.04
2018-05-01T02:43:36.444Z,16.08
2018-05-01T02:44:37.019Z,16.04
2018-05-01T02:45:37.597Z,16.01
2018-05-01T02:47:22.740Z,16.09
2018-05-01T02:48:23.357Z,16.08
2018-05-01T02:49:23.934Z,16.05
2018-05-01T02:50:24.512Z,16.04
2018-05-01T02:52:09.610Z,16.09
2018-05-01T02:53:10.178Z,16.08
2018-05-01T02:54:10.756Z,16.04
2018-05-01T02:55:11.536Z,16.04
2018-05-01T02:56:56.625Z,16.08
2018-05-01T02:57:57.203Z,16.05
2018-05-01T02:58:57.782Z,15.98
2018-05-01T02:59:58.409Z,16.09
2018-05-01T03:01:48.553Z,16.13
2018-05-01T03:02:49.179Z,16.09
2018-05-01T03:03:49.756Z,16.09
2018-05-01T03:04:50.331Z,16.08
2018-05-01T03:06:35.422Z,16.10
2018-05-01T03:07:36.000Z,16.01
2018-05-01T03:08:36.578Z,15.94
2018-05-01T03:09:37.210Z,16.00
2018-05-01T03:11:22.337Z,16.01
2018-05-01T03:12:22.914Z,16.10
2018-05-01T03:13:23.491Z,16.09
2018-05-01T03:14:24.110Z,16.08
2018-05-01T03:16:09.199Z,16.02
2018-05-01T03:17:09.776Z,16.08
2018-05-01T03:18:10.403Z,16.00
2018-05-01T03:19:10.979Z,16.05
2018-05-01T03:20:56.069Z,16.00
2018-05-01T03:21:56.647Z,16.02
2018-05-01T03:22:57.274Z,16.00
2018-05-01T03:23:57.850Z,15.97
2018-05-01T03:25:42.940Z,15.94
2018-05-01T03:26:43.609Z,15.97
2018-05-01T03:27:44.187Z,15.92
2018-05-01T03:28:44.761Z,15.97
2018-05-01T03:30:29.850Z,16.02
2018-05-01T03:31:30.427Z,15.91
2018-05-01T03:32:31.005Z,15.91
2018-05-01T03:33:31.583Z,15.91
2018-05-01T03:35:16.671Z,16.02
2018-05-01T03:36:17.248Z,15.95
2018-05-01T03:37:17.828Z,15.98
2018-05-01T03:38:18.603Z,15.97
2018-05-01T03:40:03.746Z,15.98
2018-05-01T03:41:04.320Z,15.94
2018-05-01T03:42:04.896Z,15.90
2018-05-01T03:43:05.474Z,15.91
2018-05-01T03:44:50.562Z,15.98
2018-05-01T03:45:51.191Z,15.88
2018-05-01T03:46:51.766Z,15.95
2018-05-01T03:47:52.342Z,15.98
2018-05-01T03:49:37.432Z,15.97
2018-05-01T03:50:38.010Z,15.94
2018-05-01T03:51:38.588Z,15.95
2018-05-01T03:52:39.165Z,15.88
2018-05-01T03:54:24.253Z,15.88
2018-05-01T03:55:24.830Z,15.95
2018-05-01T03:56:25.408Z,15.91
2018-05-01T03:57:25.987Z,15.94
2018-05-01T03:59:11.127Z,15.95
2018-05-01T04:00:11.704Z,15.84
2018-05-01T04:01:12.282Z,15.91
2018-05-01T04:02:12.884Z,15.86
2018-05-01T04:03:58.048Z,15.84
2018-05-01T04:04:58.625Z,15.83
2018-05-01T04:05:59.402Z,15.90
2018-05-01T04:06:59.981Z,15.88
2018-05-01T04:08:45.069Z,15.86
2018-05-01T04:09:45.646Z,15.84
2018-05-01T04:10:46.224Z,15.88
2018-05-01T04:11:46.802Z,15.79
2018-05-01T04:13:31.891Z,15.83
2018-05-01T04:14:32.467Z,15.84
2018-05-01T04:15:33.045Z,15.83
2018-05-01T04:16:33.625Z,15.83
2018-05-01T04:18:18.723Z,15.90
2018-05-01T04:19:19.343Z,15.83
2018-05-01T04:20:19.969Z,15.83
2018-05-01T04:21:20.549Z,15.83
2018-05-01T04:23:05.639Z,15.88
2018-05-01T04:24:06.257Z,15.83
2018-05-01T04:25:06.885Z,15.82
2018-05-01T04:26:07.460Z,15.84
2018-05-01T04:27:52.550Z,15.83
2018-05-01T04:28:53.127Z,15.82
2018-05-01T04:29:53.705Z,15.77
2018-05-01T04:30:54.283Z,15.84
2018-05-01T04:32:39.372Z,15.84
2018-05-01T04:33:39.949Z,15.76
2018-05-01T04:34:40.528Z,15.77
2018-05-01T04:35:41.105Z,15.70
2018-05-01T04:37:26.195Z,15.79
2018-05-01T04:38:26.772Z,15.76
2018-05-01T04:39:27.398Z,15.83
2018-05-01T04:40:27.974Z,15.77
2018-05-01T04:42:13.112Z,15.82
2018-05-01T04:43:13.695Z,15.72
2018-05-01T04:44:14.267Z,15.83
2018-05-01T04:45:14.895Z,15.80
2018-05-01T04:47:00.037Z,15.77
2018-05-01T04:48:00.614Z,15.67
2018-05-01T04:49:01.191Z,15.73
2018-05-01T04:50:01.769Z,15.75
2018-05-01T04:51:46.860Z,15.67
2018-05-01T04:52:47.435Z,15.65
2018-05-01T04:53:48.013Z,15.76
2018-05-01T04:54:48.591Z,15.73
2018-05-01T04:56:33.730Z,15.76
2018-05-01T04:57:34.307Z,15.72
2018-05-01T04:58:34.909Z,15.73
2018-05-01T04:59:35.459Z,15.75
2018-05-01T05:01:20.649Z,15.73
2018-05-01T05:02:21.225Z,15.75
2018-05-01T05:03:21.801Z,15.73
2018-05-01T05:04:22.377Z,15.73
2018-05-01T05:06:07.470Z,15.72
2018-05-01T05:07:08.044Z,15.77
2018-05-01T05:08:08.621Z,15.67
2018-05-01T05:09:09.199Z,15.73
2018-05-01T05:10:54.287Z,15.76
2018-05-01T05:11:54.866Z,15.72
2018-05-01T05:12:55.443Z,15.76
2018-05-01T05:13:56.024Z,15.70
2018-05-01T05:15:41.109Z,15.73
2018-05-01T05:16:41.736Z,15.70
2018-05-01T05:17:42.362Z,15.76
2018-05-01T05:18:42.940Z,15.75
2018-05-01T05:20:28.033Z,15.73
2018-05-01T05:21:28.657Z,15.77
2018-05-01T05:22:29.234Z,15.75
2018-05-01T05:23:29.811Z,15.70
2018-05-01T05:25:14.899Z,15.73
2018-05-01T05:26:15.477Z,15.75
2018-05-01T05:27:16.054Z,15.70
2018-05-01T05:28:16.632Z,15.73
2018-05-01T05:30:01.722Z,15.75
2018-05-01T05:31:02.397Z,15.77
2018-05-01T05:32:03.023Z,15.77
2018-05-01T05:33:03.599Z,15.75
2018-05-01T05:34:48.689Z,15.76
2018-05-01T05:35:49.269Z,15.73
2018-05-01T05:36:49.842Z,15.76
2018-05-01T05:37:50.521Z,15.72
2018-05-01T05:39:35.612Z,15.72
2018-05-01T05:40:36.188Z,15.72
2018-05-01T05:41:36.764Z,15.70
2018-05-01T05:42:37.342Z,15.72
2018-05-01T05:44:22.430Z,15.80
2018-05-01T05:45:23.008Z,15.73
2018-05-01T05:46:23.636Z,15.72
2018-05-01T05:47:24.212Z,15.72
2018-05-01T05:49:09.352Z,15.72
2018-05-01T05:50:09.929Z,15.75
2018-05-01T05:51:10.504Z,15.73
2018-05-01T05:52:11.080Z,15.77
2018-05-01T05:53:56.169Z,15.80
2018-05-01T05:54:56.747Z,15.73
2018-05-01T05:55:57.323Z,15.75
2018-05-01T05:56:57.903Z,15.73
2018-05-01T05:58:42.992Z,15.68
2018-05-01T05:59:43.619Z,15.73
2018-05-01T06:00:44.194Z,15.75
2018-05-01T06:01:44.771Z,15.73
2018-05-01T06:03:29.861Z,15.75
2018-05-01T06:04:30.438Z,15.70
2018-05-01T06:05:31.064Z,15.77
2018-05-01T06:06:31.640Z,15.68
2018-05-01T06:08:16.778Z,15.73
2018-05-01T06:09:17.355Z,15.77
2018-05-01T06:10:17.931Z,15.79
2018-05-01T06:11:18.506Z,15.70
2018-05-01T06:13:03.596Z,15.75
2018-05-01T06:14:04.222Z,15.77
2018-05-01T06:15:04.797Z,15.76
2018-05-01T06:16:05.374Z,15.76
2018-05-01T06:17:50.513Z,15.73
2018-05-01T06:18:51.091Z,15.75
2018-05-01T06:19:51.670Z,15.77
2018-05-01T06:20:52.246Z,15.67
2018-05-01T06:22:37.335Z,15.77
2018-05-01T06:23:37.913Z,15.75
2018-05-01T06:24:38.489Z,15.68
2018-05-01T06:25:39.066Z,15.77
2018-05-01T06:27:24.154Z,15.76
2018-05-01T06:28:24.731Z,15.67
2018-05-01T06:29:25.366Z,15.76
2018-05-01T06:30:26.029Z,15.77
2018-05-01T06:32:11.119Z,15.73
2018-05-01T06:33:11.696Z,15.68
2018-05-01T06:34:12.322Z,15.76
2018-05-01T06:35:12.898Z,15.76
2018-05-01T06:36:58.069Z,15.77
2018-05-01T06:37:58.614Z,15.79
2018-05-01T06:38:59.188Z,15.77
2018-05-01T06:39:59.765Z,15.67
2018-05-01T06:41:44.853Z,15.73
2018-05-01T06:42:45.431Z,15.77
2018-05-01T06:43:46.007Z,15.75
2018-05-01T06:44:46.585Z,15.77
2018-05-01T06:46:31.674Z,15.75
2018-05-01T06:47:32.251Z,15.79
2018-05-01T06:48:32.877Z,15.76
2018-05-01T06:49:33.453Z,15.77
2018-05-01T06:51:18.593Z,15.76
2018-05-01T06:52:19.170Z,15.76
2018-05-01T06:53:19.798Z,15.70
2018-05-01T06:54:20.373Z,15.76
2018-05-01T06:56:05.463Z,15.75
2018-05-01T06:57:06.039Z,15.76
2018-05-01T06:58:06.617Z,15.73
2018-05-01T06:59:07.195Z,15.77
2018-05-01T07:00:52.283Z,15.75
2018-05-01T07:01:52.860Z,15.76
2018-05-01T07:02:53.437Z,15.73
2018-05-01T07:03:54.016Z,15.76
2018-05-01T07:05:39.105Z,15.77
2018-05-01T07:06:39.681Z,15.76
2018-05-01T07:07:40.258Z,15.79
2018-05-01T07:08:40.886Z,15.72
2018-05-01T07:10:26.025Z,15.77
2018-05-01T07:11:26.603Z,15.70
2018-05-01T07:12:27.180Z,15.68
2018-05-01T07:13:27.758Z,15.73
2018-05-01T07:15:12.847Z,15.70
2018-05-01T07:16:13.428Z,15.70
2018-05-01T07:17:14.052Z,15.68
2018-05-01T07:18:14.627Z,15.68
2018-05-01T07:19:59.721Z,15.67
2018-05-01T07:21:00.293Z,15.64
2018-05-01T07:22:00.868Z,15.59
2018-05-01T07:23:01.446Z,15.59
2018-05-01T07:24:46.534Z,15.65
2018-05-01T07:25:47.165Z,15.62
2018-05-01T07:26:47.787Z,15.72
2018-05-01T07:27:48.364Z,15.73
2018-05-01T07:29:33.455Z,15.76
2018-05-01T07:30:34.033Z,15.75
2018-05-01T07:31:34.608Z,15.67
2018-05-01T07:32:35.240Z,15.68
2018-05-01T07:34:20.324Z,15.70
2018-05-01T07:35:20.903Z,15.75
2018-05-01T07:36:21.480Z,15.68
2018-05-01T07:37:22.058Z,15.68
2018-05-01T07:39:07.147Z,15.72
2018-05-01T07:40:07.725Z,15.64
2018-05-01T07:41:08.305Z,15.70
2018-05-01T07:42:08.922Z,15.67
2018-05-01T07:43:54.062Z,15.72
2018-05-01T07:44:54.688Z,15.65
2018-05-01T07:45:55.263Z,15.64
2018-05-01T07:46:55.840Z,15.62
2018-05-01T07:48:40.931Z,15.73
2018-05-01T07:49:41.508Z,15.67
2018-05-01T07:50:42.084Z,15.62
2018-05-01T07:51:42.662Z,15.62
2018-05-01T07:53:27.801Z,15.70
2018-05-01T07:54:28.379Z,15.70
2018-05-01T07:55:28.955Z,15.64
2018-05-01T07:56:29.533Z,15.68
2018-05-01T07:58:14.620Z,15.68
2018-05-01T07:59:15.201Z,15.64
2018-05-01T08:00:15.790Z,15.67
2018-05-01T08:01:16.354Z,15.59
2018-05-01T08:03:01.495Z,15.73
2018-05-01T08:04:02.071Z,15.68
2018-05-01T08:05:02.646Z,15.75
2018-05-01T08:06:03.226Z,15.72
2018-05-01T08:07:48.313Z,15.76
2018-05-01T08:08:48.894Z,15.64
2018-05-01T08:09:49.511Z,15.65
2018-05-01T08:10:50.088Z,15.68
2018-05-01T08:12:35.228Z,15.62
2018-05-01T08:13:35.855Z,15.62
2018-05-01T08:14:36.431Z,15.61
2018-05-01T08:15:37.007Z,15.64
2018-05-01T08:17:22.095Z,15.64
2018-05-01T08:18:22.672Z,15.61
2018-05-01T08:19:23.449Z,15.58
2018-05-01T08:20:24.024Z,15.61
2018-05-01T08:22:09.113Z,15.52
2018-05-01T08:23:09.690Z,15.47
2018-05-01T08:24:10.302Z,15.51
2018-05-01T08:25:10.895Z,15.44
2018-05-01T08:26:55.983Z,15.51
2018-05-01T08:27:56.561Z,15.46
2018-05-01T08:28:57.138Z,15.47
2018-05-01T08:29:57.715Z,15.46
2018-05-01T08:31:42.861Z,15.54
2018-05-01T08:32:43.429Z,15.55
2018-05-01T08:33:44.056Z,15.59
2018-05-01T08:34:44.685Z,15.61
2018-05-01T08:36:29.776Z,15.58
2018-05-01T08:37:30.395Z,15.55
2018-05-01T08:38:30.980Z,15.55
2018-05-01T08:39:31.550Z,15.58
2018-05-01T08:41:16.638Z,15.59
2018-05-01T08:42:17.219Z,15.62
2018-05-01T08:43:17.836Z,15.51
2018-05-01T08:44:18.412Z,15.58
2018-05-01T08:46:03.500Z,15.59
2018-05-01T08:47:04.129Z,15.59
2018-05-01T08:48:04.703Z,15.55
2018-05-01T08:49:05.279Z,15.55
2018-05-01T08:50:50.370Z,15.55
2018-05-01T08:51:50.997Z,15.59
2018-05-01T08:52:51.574Z,15.58
2018-05-01T08:53:52.152Z,15.64
2018-05-01T08:55:37.244Z,15.64
2018-05-01T08:56:37.872Z,15.61
2018-05-01T08:57:38.451Z,15.75
2018-05-01T08:58:39.031Z,15.76
2018-05-01T09:00:24.124Z,15.72
2018-05-01T09:01:24.705Z,15.79
2018-05-01T09:02:25.286Z,15.92
2018-05-01T09:03:25.867Z,15.86
2018-05-01T09:05:11.011Z,15.83
2018-05-01T09:06:11.594Z,15.91
2018-05-01T09:07:12.174Z,15.92
2018-05-01T09:08:12.756Z,15.94
2018-05-01T09:09:57.851Z,15.98
2018-05-01T09:10:58.432Z,16.05
2018-05-01T09:11:59.063Z,16.04
2018-05-01T09:12:59.694Z,16.01
2018-05-01T09:14:44.789Z,16.05
2018-05-01T09:15:45.371Z,16.09
2018-05-01T09:16:45.959Z,16.17
2018-05-01T09:17:46.635Z,16.16
2018-05-01T09:19:31.628Z,16.26
2018-05-01T09:20:32.209Z,16.17
2018-05-01T09:21:32.841Z,16.23
2018-05-01T09:22:33.421Z,16.26
2018-05-01T09:24:18.516Z,16.33
2018-05-01T09:25:19.099Z,16.33
2018-05-01T09:26:19.679Z,16.33
2018-05-01T09:27:20.314Z,16.31
2018-05-01T09:29:05.449Z,16.38
2018-05-01T09:30:06.032Z,16.41
2018-05-01T09:31:06.613Z,16.39
2018-05-01T09:32:07.194Z,16.36
2018-05-01T09:33:52.442Z,16.33
2018-05-01T09:34:53.023Z,16.36
2018-05-01T09:35:53.611Z,16.38
2018-05-01T09:36:54.241Z,16.36
2018-05-01T09:38:39.335Z,16.39
2018-05-01T09:39:39.915Z,16.33
2018-05-01T09:40:40.549Z,16.36
2018-05-01T09:41:41.127Z,16.33
2018-05-01T09:43:26.220Z,16.35
2018-05-01T09:44:26.853Z,16.41
2018-05-01T09:45:27.437Z,16.46
2018-05-01T09:46:28.069Z,16.41
2018-05-01T09:48:13.165Z,16.43
2018-05-01T09:49:13.747Z,16.47
2018-05-01T09:50:14.327Z,16.46
2018-05-01T09:51:14.911Z,16.47
2018-05-01T09:53:00.006Z,16.60
2018-05-01T09:54:00.589Z,16.53
2018-05-01T09:55:01.171Z,16.61
2018-05-01T09:56:01.804Z,16.57
2018-05-01T09:57:46.948Z,16.65
2018-05-01T09:58:47.528Z,16.60
2018-05-01T09:59:48.110Z,16.61
2018-05-01T10:00:48.691Z,16.61
2018-05-01T10:02:33.835Z,16.75
2018-05-01T10:03:34.422Z,16.78
2018-05-01T10:04:34.999Z,16.72
2018-05-01T10:05:35.582Z,16.83
2018-05-01T10:07:20.678Z,16.84
2018-05-01T10:08:21.262Z,16.79
2018-05-01T10:09:21.842Z,16.89
2018-05-01T10:10:22.469Z,16.91
2018-05-01T10:12:07.566Z,16.91
2018-05-01T10:13:08.147Z,16.90
2018-05-01T10:14:08.779Z,16.94
2018-05-01T10:15:09.361Z,16.97
2018-05-01T10:16:54.506Z,16.96
2018-05-01T10:17:55.088Z,16.89
2018-05-01T10:18:55.668Z,16.86
2018-05-01T10:19:56.250Z,16.94
2018-05-01T10:21:41.351Z,16.99
2018-05-01T10:22:41.930Z,17.02
2018-05-01T10:23:42.513Z,16.99
2018-05-01T10:24:43.097Z,17.05
2018-05-01T10:26:28.241Z,17.06
2018-05-01T10:27:28.823Z,17.19
2018-05-01T10:28:29.405Z,17.16
2018-05-01T10:29:29.993Z,17.22
2018-05-01T10:31:15.084Z,17.19
2018-05-01T10:32:15.668Z,17.26
2018-05-01T10:33:16.251Z,17.29
2018-05-01T10:34:16.884Z,17.24
2018-05-01T10:36:02.279Z,17.33
2018-05-01T10:37:02.862Z,17.31
2018-05-01T10:39:05.079Z,17.39
2018-05-01T10:40:53.992Z,17.42
2018-05-01T10:41:54.565Z,17.45
2018-05-01T10:42:55.139Z,17.51
2018-05-01T10:43:55.715Z,17.48
2018-05-01T10:45:40.678Z,17.52
2018-05-01T10:46:41.268Z,17.59
2018-05-01T10:47:41.899Z,17.67
2018-05-01T10:48:42.516Z,17.68
2018-05-01T10:50:27.443Z,17.74
2018-05-01T10:51:28.027Z,17.72
2018-05-01T10:52:28.644Z,17.68
2018-05-01T10:53:29.276Z,17.82
2018-05-01T10:55:14.198Z,17.85
2018-05-01T10:56:14.779Z,17.87
2018-05-01T10:57:15.360Z,17.89
2018-05-01T10:58:15.942Z,18.00
2018-05-01T11:00:01.079Z,18.01
2018-05-01T11:01:01.694Z,17.92
2018-05-01T11:02:02.293Z,18.03
2018-05-01T11:03:02.858Z,18.01
2018-05-01T11:04:47.783Z,18.07
2018-05-01T11:05:48.365Z,18.04
2018-05-01T11:06:49.005Z,18.05
2018-05-01T11:07:49.642Z,18.15
2018-05-01T11:09:34.796Z,18.16
2018-05-01T11:10:35.390Z,18.26
2018-05-01T11:11:36.024Z,18.31
2018-05-01T11:12:36.605Z,18.26
2018-05-01T11:14:21.760Z,18.31
2018-05-01T11:15:22.348Z,18.38
2018-05-01T11:16:22.988Z,18.38
2018-05-01T11:17:23.638Z,18.43
2018-05-01T11:19:08.682Z,18.50
2018-05-01T11:20:09.276Z,18.53
2018-05-01T11:21:09.860Z,18.50
2018-05-01T11:22:10.453Z,18.59
2018-05-01T11:23:55.607Z,18.63
2018-05-01T11:24:56.196Z,18.70
2018-05-01T11:25:56.874Z,18.73
2018-05-01T11:26:57.378Z,18.77
2018-05-01T11:28:42.934Z,18.86
2018-05-01T11:29:43.575Z,18.95
2018-05-01T11:30:44.367Z,19.00
2018-05-01T11:31:45.013Z,19.00
2018-05-01T11:33:30.135Z,19.21
2018-05-01T11:34:30.809Z,19.26
2018-05-01T11:35:31.401Z,19.22
2018-05-01T11:36:31.996Z,19.30
2018-05-01T11:38:17.140Z,19.26
2018-05-01T11:39:17.736Z,19.39
2018-05-01T11:40:18.323Z,19.45
2018-05-01T11:41:18.917Z,19.44
2018-05-01T11:43:04.065Z,19.48
2018-05-01T11:44:04.660Z,19.51
2018-05-01T11:45:05.341Z,19.52
2018-05-01T11:46:05.841Z,19.59
2018-05-01T11:47:50.998Z,19.76
2018-05-01T11:48:51.593Z,19.82
2018-05-01T11:49:52.385Z,19.89
2018-05-01T11:50:52.978Z,19.89
2018-05-01T11:52:38.085Z,19.94
2018-05-01T11:53:38.682Z,19.92
2018-05-01T11:54:39.274Z,19.99
2018-05-01T11:55:39.865Z,20.02
2018-05-01T11:57:25.025Z,20.21
2018-05-01T11:58:25.618Z,20.21
2018-05-01T11:59:26.215Z,20.25
2018-05-01T12:00:26.806Z,20.26
2018-05-01T12:02:11.965Z,20.50
2018-05-01T12:03:12.558Z,20.58
2018-05-01T12:04:13.154Z,20.66
2018-05-01T12:05:13.747Z,20.75
2018-05-01T12:06:58.857Z,20.92
2018-05-01T12:07:59.496Z,20.93
2018-05-01T12:09:00.081Z,20.95
2018-05-01T12:10:00.677Z,21.06
2018-05-01T12:11:45.829Z,21.18
2018-05-01T12:12:46.426Z,21.24
2018-05-01T12:13:47.023Z,21.27
2018-05-01T12:14:48.809Z,21.33
2018-05-01T12:16:33.920Z,21.42
2018-05-01T12:17:34.517Z,21.52
2018-05-01T12:18:35.120Z,21.62
2018-05-01T12:19:35.748Z,21.69
2018-05-01T12:21:20.910Z,21.85
2018-05-01T12:22:21.506Z,21.95
2018-05-01T12:23:22.103Z,22.07
2018-05-01T12:24:22.697Z,22.14
2018-05-01T12:26:07.858Z,22.25
2018-05-01T12:27:08.455Z,22.45
2018-05-01T12:28:09.049Z,22.45
2018-05-01T12:29:09.648Z,22.62
2018-05-01T12:30:54.758Z,22.76
2018-05-01T12:31:55.355Z,22.80
2018-05-01T12:32:55.950Z,22.87
2018-05-01T12:33:56.546Z,22.91
2018-05-01T12:35:41.707Z,23.08
2018-05-01T12:36:42.392Z,23.23
2018-05-01T12:37:42.898Z,23.24
2018-05-01T12:38:43.494Z,23.46
2018-05-01T12:40:28.655Z,23.55
2018-05-01T12:41:29.252Z,23.74
2018-05-01T12:42:29.886Z,23.80
2018-05-01T12:43:30.444Z,23.87
2018-05-01T12:45:15.605Z,23.98
2018-05-01T12:46:16.200Z,24.08
2018-05-01T12:47:16.797Z,24.17
2018-05-01T12:48:17.423Z,24.24
2018-05-01T12:50:02.596Z,24.36
2018-05-01T12:51:03.187Z,24.42
2018-05-01T12:52:03.785Z,24.55
2018-05-01T12:53:04.422Z,24.57
2018-05-01T12:54:49.585Z,24.63
2018-05-01T12:55:50.180Z,24.74
2018-05-01T12:56:50.778Z,24.78
2018-05-01T12:57:51.375Z,24.93
2018-05-01T12:59:36.489Z,25.06
2018-05-01T13:00:37.087Z,25.17
2018-05-01T13:01:37.684Z,25.25
2018-05-01T13:02:38.279Z,25.21
2018-05-01T13:04:23.395Z,25.38
2018-05-01T13:05:23.988Z,25.36
2018-05-01T13:07:26.223Z,25.50
2018-05-01T13:09:11.476Z,25.60
2018-05-01T13:10:12.072Z,25.65
2018-05-01T13:11:12.669Z,25.80
2018-05-01T13:12:13.266Z,25.77
2018-05-01T13:13:58.380Z,25.83
2018-05-01T13:14:58.978Z,25.87
2018-05-01T13:15:59.572Z,25.84
2018-05-01T13:17:00.174Z,25.85
2018-05-01T13:18:45.283Z,25.90
2018-05-01T13:19:45.880Z,25.95
2018-05-01T13:20:46.478Z,25.99
2018-05-01T13:21:47.278Z,25.98
2018-05-01T13:23:32.388Z,26.00
2018-05-01T13:24:32.986Z,25.99
2018-05-01T13:25:33.633Z,25.95
2018-05-01T13:26:34.228Z,25.88
2018-05-01T13:28:19.390Z,25.99
2018-05-01T13:29:19.988Z,26.15
2018-05-01T13:30:20.583Z,26.15
2018-05-01T13:31:21.185Z,26.07
2018-05-01T13:33:06.337Z,26.22
2018-05-01T13:34:06.932Z,26.26
2018-05-01T13:35:07.527Z,26.33
2018-05-01T13:36:08.124Z,26.43
2018-05-01T13:37:53.276Z,26.43
2018-05-01T13:38:53.886Z,26.52
2018-05-01T13:39:54.481Z,26.43
2018-05-01T13:40:55.078Z,26.45
2018-05-01T13:42:40.196Z,26.52
2018-05-01T13:43:40.782Z,26.51
2018-05-01T13:44:41.382Z,26.58
2018-05-01T13:45:41.971Z,26.53
2018-05-01T13:47:27.132Z,26.60
2018-05-01T13:48:27.728Z,26.58
2018-05-01T13:49:28.324Z,26.66
2018-05-01T13:50:28.949Z,26.63
2018-05-01T13:52:14.084Z,26.60
2018-05-01T13:53:14.677Z,26.55
2018-05-01T13:54:15.302Z,26.60
2018-05-01T13:55:15.935Z,26.58
2018-05-01T13:57:00.980Z,26.55
2018-05-01T13:58:01.593Z,26.56
2018-05-01T13:59:02.288Z,26.65
2018-05-01T14:00:02.859Z,26.68
2018-05-01T14:01:47.969Z,26.81
2018-05-01T14:02:48.569Z,26.81
2018-05-01T14:03:49.311Z,26.73
2018-05-01T14:04:49.907Z,26.75
2018-05-01T14:06:35.015Z,26.68
2018-05-01T14:09:38.837Z,26.66
2018-05-01T14:11:23.947Z,26.59
2018-05-01T14:14:27.759Z,26.66
2018-05-01T14:16:12.943Z,26.59
2018-05-01T14:17:13.530Z,26.65
2018-05-01T14:18:14.118Z,26.52
2018-05-01T14:19:14.767Z,26.52
2018-05-01T14:20:59.735Z,26.45
2018-05-01T14:22:00.324Z,26.41
2018-05-01T14:23:00.916Z,26.36
2018-05-01T14:24:01.552Z,26.33
2018-05-01T14:25:46.939Z,26.36
2018-05-01T14:26:47.427Z,26.31
2018-05-01T14:29:03.658Z,25.84
2018-05-01T14:30:04.245Z,25.93
2018-05-01T14:31:49.186Z,26.05
2018-05-01T14:32:49.775Z,26.02
2018-05-01T14:33:50.362Z,25.98
2018-05-01T14:34:51.001Z,25.90
2018-05-01T14:36:36.089Z,25.85
2018-05-01T14:37:36.678Z,25.87
2018-05-01T14:38:37.468Z,25.73
2018-05-01T14:39:38.055Z,25.80
2018-05-01T14:41:22.993Z,25.80
2018-05-01T14:42:23.583Z,25.84
2018-05-01T14:43:24.171Z,25.75
2018-05-01T14:44:24.760Z,25.81
2018-05-01T14:46:09.747Z,25.78
2018-05-01T14:47:10.338Z,25.66
2018-05-01T14:48:24.691Z,25.43
2018-05-01T14:49:25.280Z,25.44
2018-05-01T14:50:46.368Z,24.93
2018-05-01T14:51:46.964Z,24.89
2018-05-01T14:52:47.558Z,24.91
2018-05-01T14:53:48.153Z,24.89
2018-05-01T14:55:33.263Z,24.78
2018-05-01T14:56:33.859Z,24.77
2018-05-01T14:57:34.502Z,24.77
2018-05-01T14:58:35.099Z,24.86
2018-05-01T15:00:20.204Z,24.76
2018-05-01T15:01:20.919Z,24.70
2018-05-01T15:02:21.495Z,24.57
2018-05-01T15:03:22.087Z,24.40
2018-05-01T15:05:07.197Z,24.57
2018-05-01T15:06:07.790Z,24.60
2018-05-01T15:07:08.382Z,24.61
2018-05-01T15:08:08.973Z,24.61
2018-05-01T15:09:54.131Z,24.55
2018-05-01T15:10:54.721Z,24.63
2018-05-01T15:11:55.312Z,24.50
2018-05-01T15:12:55.903Z,24.50
2018-05-01T15:14:41.010Z,24.50
2018-05-01T15:15:41.652Z,24.43
2018-05-01T15:16:42.297Z,24.36
2018-05-01T15:17:42.884Z,24.35
2018-05-01T15:19:28.041Z,24.26
2018-05-01T15:20:28.630Z,24.23
2018-05-01T15:21:29.220Z,24.10
2018-05-01T15:22:29.861Z,24.10
2018-05-01T15:24:14.967Z,24.06
2018-05-01T15:25:15.557Z,24.10
2018-05-01T15:27:17.719Z,24.08
2018-05-01T15:29:02.659Z,24.03
2018-05-01T15:30:03.370Z,23.99
2018-05-01T15:31:03.838Z,24.10
2018-05-01T15:32:04.427Z,24.01